Time;durP1;ratioP1;P1;durP2;ratioP2;P2;SDS_P1;SDS_P2;PMS_P1;PMS_P2;Temp;Humidity;BMP_temperature;BMP_pressure;BME280_temperature;BME280_humidity;BME280_pressure;Samples;Min_cycle;Max_cycle;Signal;HPM_P1;HPM_P2
2022/04/09 00:02:22;;;;;;;10.20;2.28;;;4.00;99.90;;;;;;4994007;28;20105;-76
2022/04/09 00:04:48;;;;;;;10.23;2.25;;;3.90;99.90;;;;;;4978914;28;20052;-76
2022/04/09 00:07:15;;;;;;;10.02;2.08;;;3.90;99.90;;;;;;4994993;28;20053;-76
2022/04/09 00:09:41;;;;;;;7.82;1.92;;;3.90;99.90;;;;;;4994816;28;20038;-76
2022/04/09 00:12:08;;;;;;;11.10;2.50;;;4.40;99.90;;;;;;4994970;28;20510;-76
2022/04/09 00:14:34;;;;;;;13.73;2.28;;;3.90;99.90;;;;;;4994711;28;20050;-76
2022/04/09 00:17:00;;;;;;;9.35;2.25;;;4.00;99.90;;;;;;4994435;28;20077;-76
2022/04/09 00:19:26;;;;;;;11.35;2.70;;;4.00;99.90;;;;;;4994836;28;20043;-76
2022/04/09 00:21:52;;;;;;;10.77;2.25;;;4.00;99.90;;;;;;4977469;28;20050;-76
2022/04/09 00:24:18;;;;;;;10.55;2.17;;;4.00;99.90;;;;;;4959196;28;20400;-76
2022/04/09 00:26:43;;;;;;;10.43;2.35;;;4.20;99.90;;;;;;4975171;28;20042;-76
2022/04/09 00:29:09;;;;;;;12.40;2.80;;;4.00;99.90;;;;;;4974762;28;20557;-76
2022/04/09 00:31:35;;;;;;;14.25;2.58;;;4.10;99.90;;;;;;4975372;28;20144;-76
2022/04/09 00:34:01;;;;;;;13.57;2.60;;;4.10;99.90;;;;;;4974249;28;20065;-76
2022/04/09 00:36:26;;;;;;;10.15;2.60;;;4.20;99.90;;;;;;4975326;28;20039;-76
2022/04/09 00:38:52;;;;;;;11.95;2.50;;;4.10;99.90;;;;;;4974774;28;20042;-76
2022/04/09 00:41:18;;;;;;;12.32;2.70;;;4.10;99.90;;;;;;4974421;28;20061;-76
2022/04/09 00:43:44;;;;;;;11.20;2.35;;;4.10;99.90;;;;;;4958548;28;20043;-76
2022/04/09 00:46:14;;;;;;;11.63;2.50;;;4.00;99.90;;;;;;4974949;28;20041;-76
2022/04/09 00:48:41;;;;;;;12.07;2.63;;;4.00;99.90;;;;;;4973979;28;20553;-76
2022/04/09 00:51:07;;;;;;;12.05;2.40;;;3.90;99.90;;;;;;4991042;28;20039;-76
2022/04/09 00:53:41;;;;;;;9.45;2.33;;;3.90;99.90;;;;;;4974450;28;20568;-76
2022/04/09 00:56:13;;;;;;;8.77;2.40;;;3.90;99.90;;;;;;4958955;28;20113;-76
2022/04/09 00:58:43;;;;;;;9.93;2.28;;;3.90;99.90;;;;;;4974665;28;20592;-76
2022/04/09 01:01:10;;;;;;;10.13;2.20;;;3.80;99.90;;;;;;4958889;28;20047;-76
2022/04/09 01:03:38;;;;;;;11.48;2.20;;;3.80;99.90;;;;;;4957250;28;20406;-76
2022/04/09 01:06:08;;;;;;;9.18;2.15;;;3.80;99.90;;;;;;4974727;28;20082;-76
2022/04/09 01:08:33;;;;;;;8.50;2.00;;;3.80;99.90;;;;;;4974151;28;20047;-76
2022/04/09 01:10:59;;;;;;;7.32;2.10;;;3.80;99.90;;;;;;4974516;28;20096;-76
2022/04/09 01:13:25;;;;;;;8.52;1.88;;;3.80;99.90;;;;;;4974003;28;20043;-76
2022/04/09 01:15:51;;;;;;;8.35;1.95;;;3.80;99.90;;;;;;4974299;28;20498;-76
2022/04/09 01:18:18;;;;;;;7.35;2.13;;;3.80;99.90;;;;;;4973372;28;20042;-76
2022/04/09 01:20:43;;;;;;;9.40;2.10;;;3.80;99.90;;;;;;4958382;28;20130;-76
2022/04/09 01:23:09;;;;;;;13.20;2.13;;;3.80;99.90;;;;;;4957724;28;20125;-76
2022/04/09 01:25:37;;;;;;;7.43;2.03;;;3.90;99.90;;;;;;4958067;28;20042;-76
2022/04/09 01:28:04;;;;;;;6.75;1.75;;;3.90;99.90;;;;;;4974173;28;20041;-76
2022/04/09 01:30:29;;;;;;;8.85;1.63;;;3.90;99.90;;;;;;4973956;28;20049;-76
2022/04/09 01:32:55;;;;;;;7.57;1.90;;;4.00;99.90;;;;;;4972931;28;20046;-76
2022/04/09 01:35:21;;;;;;;9.65;1.90;;;4.00;99.90;;;;;;4973912;28;20053;-76
2022/04/09 01:37:47;;;;;;;6.90;1.80;;;4.00;99.90;;;;;;4957667;28;20471;-76
2022/04/09 01:40:13;;;;;;;9.45;1.77;;;3.90;99.90;;;;;;4973945;28;20078;-76
2022/04/09 01:42:39;;;;;;;6.60;1.60;;;3.90;99.90;;;;;;4957384;28;20074;-76
2022/04/09 01:45:07;;;;;;;6.93;1.65;;;3.90;99.90;;;;;;4974037;28;20081;-76
2022/04/09 01:47:33;;;;;;;6.13;1.73;;;3.80;99.90;;;;;;4972811;28;20375;-76
2022/04/09 01:50:00;;;;;;;6.78;1.60;;;3.80;99.90;;;;;;4973765;28;20101;-76
2022/04/09 01:52:26;;;;;;;8.45;1.60;;;3.80;99.90;;;;;;4972248;28;20069;-76
2022/04/09 01:54:52;;;;;;;6.80;1.70;;;3.70;99.90;;;;;;4973699;28;20051;-76
2022/04/09 01:57:17;;;;;;;9.70;1.80;;;3.70;99.90;;;;;;4973591;28;20055;-76
2022/04/09 01:59:44;;;;;;;5.90;1.60;;;3.70;99.90;;;;;;4973804;28;20049;-76
2022/04/09 02:02:09;;;;;;;8.38;1.90;;;3.70;99.90;;;;;;4973087;28;20086;-76
2022/04/09 02:04:35;;;;;;;7.40;1.70;;;3.70;99.90;;;;;;4972962;28;20105;-76
2022/04/09 02:07:01;;;;;;;7.80;1.80;;;3.70;99.90;;;;;;4973388;28;20039;-76
2022/04/09 02:09:27;;;;;;;8.35;1.77;;;3.70;99.90;;;;;;4973686;28;20069;-76
2022/04/09 02:11:53;;;;;;;9.80;2.15;;;3.70;99.90;;;;;;4973452;28;20128;-76
2022/04/09 02:14:18;;;;;;;9.40;2.13;;;3.70;99.90;;;;;;4973383;28;20077;-76
2022/04/09 02:16:44;;;;;;;10.20;2.22;;;3.70;99.90;;;;;;4973310;28;20050;-76
2022/04/09 02:19:10;;;;;;;7.50;1.80;;;3.70;99.90;;;;;;4972164;28;20454;-76
2022/04/09 02:21:37;;;;;;;10.55;2.10;;;3.70;99.90;;;;;;4973264;28;20054;-76
2022/04/09 02:24:02;;;;;;;7.63;1.80;;;4.10;99.90;;;;;;4972978;28;20074;-76
2022/04/09 02:26:28;;;;;;;8.05;1.90;;;3.70;99.90;;;;;;4973182;28;20081;-76
2022/04/09 02:28:54;;;;;;;8.35;1.77;;;3.70;99.90;;;;;;4972819;28;20054;-76
2022/04/09 02:31:20;;;;;;;8.52;1.63;;;3.70;99.90;;;;;;4982229;28;20409;-76
2022/04/09 02:33:47;;;;;;;6.75;1.52;;;3.70;99.90;;;;;;4975661;28;20046;-76
2022/04/09 02:36:13;;;;;;;6.22;1.60;;;3.70;99.90;;;;;;4992551;28;20050;-76
2022/04/09 02:38:39;;;;;;;7.03;1.63;;;3.70;99.90;;;;;;4992465;28;20046;-76
2022/04/09 02:41:09;;;;;;;9.07;1.70;;;3.70;99.90;;;;;;4992472;28;20100;-76
2022/04/09 02:43:36;;;;;;;7.13;1.70;;;3.60;99.90;;;;;;4992084;28;20061;-76
2022/04/09 02:46:02;;;;;;;8.30;1.83;;;3.60;99.90;;;;;;4964206;28;20490;-76
2022/04/09 02:48:28;;;;;;;9.45;2.00;;;3.60;99.90;;;;;;4974472;28;20031;-76
2022/04/09 02:50:54;;;;;;;7.60;1.90;;;3.60;99.90;;;;;;4989206;28;20046;-76
2022/04/09 02:53:20;;;;;;;8.80;1.77;;;3.60;99.90;;;;;;4956407;28;20061;-76
2022/04/09 02:55:46;;;;;;;10.43;2.28;;;3.50;99.90;;;;;;4972960;28;20062;-76
2022/04/09 02:58:11;;;;;;;10.75;2.22;;;3.60;99.90;;;;;;4972631;28;20046;-76
2022/04/09 03:00:37;;;;;;;7.78;2.10;;;3.50;99.90;;;;;;4957164;28;20042;-76
2022/04/09 03:03:03;;;;;;;9.43;2.30;;;3.60;99.90;;;;;;4988912;28;20047;-76
2022/04/09 03:05:29;;;;;;;8.48;2.20;;;3.50;99.90;;;;;;4976692;28;20042;-76
2022/04/09 03:07:55;;;;;;;8.90;2.15;;;3.40;99.90;;;;;;4976425;28;20039;-76
2022/04/09 03:10:21;;;;;;;13.45;2.30;;;3.40;99.90;;;;;;4976888;28;20074;-76
2022/04/09 03:12:47;;;;;;;8.43;1.98;;;3.40;99.90;;;;;;4976342;28;20043;-76
2022/04/09 03:15:14;;;;;;;12.18;2.58;;;3.40;99.90;;;;;;4960636;28;20050;-76
2022/04/09 03:17:41;;;;;;;10.32;2.50;;;3.40;99.90;;;;;;4975700;28;20042;-76
2022/04/09 03:20:07;;;;;;;10.88;2.53;;;3.40;99.90;;;;;;4963469;28;20038;-76
2022/04/09 03:22:33;;;;;;;11.43;2.47;;;3.40;99.90;;;;;;4995283;28;20104;-76
2022/04/09 03:24:59;;;;;;;10.82;2.33;;;3.40;99.90;;;;;;5012207;28;20042;-76
2022/04/09 03:27:29;;;;;;;10.13;2.70;;;3.40;99.90;;;;;;5011858;28;20050;-76
2022/04/09 03:29:55;;;;;;;11.65;2.60;;;3.30;99.90;;;;;;4979606;28;20078;-76
2022/04/09 03:32:22;;;;;;;11.35;2.33;;;3.30;99.90;;;;;;5010942;28;20125;-76
2022/04/09 03:34:48;;;;;;;10.95;2.40;;;3.30;99.90;;;;;;4995642;28;20042;-76
2022/04/09 03:37:14;;;;;;;10.93;2.53;;;3.20;99.90;;;;;;4979129;28;20042;-76
2022/04/09 03:39:41;;;;;;;11.52;2.20;;;3.30;99.90;;;;;;4979654;28;20601;-76
2022/04/09 03:42:08;;;;;;;13.48;2.40;;;3.20;99.90;;;;;;4979232;28;20038;-76
2022/04/09 03:44:33;;;;;;;9.32;2.28;;;3.20;99.90;;;;;;5011702;28;20038;-76
2022/04/09 03:47:01;;;;;;;7.28;2.00;;;3.10;99.90;;;;;;4962683;28;20045;-76
2022/04/09 03:49:29;;;;;;;8.05;2.00;;;3.20;99.90;;;;;;5011208;28;20043;-76
2022/04/09 03:51:56;;;;;;;8.80;1.92;;;3.20;99.90;;;;;;4979243;28;20482;-76
2022/04/09 03:54:21;;;;;;;7.80;2.03;;;3.20;99.90;;;;;;4979232;28;20086;-76
2022/04/09 03:56:47;;;;;;;8.57;1.98;;;3.20;99.90;;;;;;5011743;28;20181;-76
2022/04/09 03:59:13;;;;;;;9.65;1.90;;;3.20;99.90;;;;;;4962734;28;20045;-76
2022/04/09 04:01:39;;;;;;;9.98;2.30;;;3.10;99.90;;;;;;4978789;28;20084;-76
2022/04/09 04:04:05;;;;;;;7.25;1.73;;;3.20;99.90;;;;;;4994044;28;20034;-76
2022/04/09 04:06:31;;;;;;;10.45;1.95;;;3.10;99.90;;;;;;5011621;28;20078;-76
2022/04/09 04:08:57;;;;;;;7.93;1.92;;;3.10;99.90;;;;;;4977125;28;20065;-76
2022/04/09 04:11:23;;;;;;;8.27;1.80;;;3.20;99.90;;;;;;4975504;28;20409;-76
2022/04/09 04:13:49;;;;;;;8.68;2.00;;;3.30;99.90;;;;;;4959275;28;20402;-76
2022/04/09 04:16:16;;;;;;;8.75;1.95;;;3.30;99.90;;;;;;4974846;28;20130;-76
2022/04/09 04:18:42;;;;;;;11.65;2.10;;;3.30;99.90;;;;;;4974346;28;20054;-76
2022/04/09 04:21:09;;;;;;;9.20;2.00;;;3.30;99.90;;;;;;4991479;28;20081;-76
2022/04/09 04:23:35;;;;;;;8.32;1.83;;;3.30;99.90;;;;;;4958838;28;20046;-76
2022/04/09 04:26:02;;;;;;;8.38;1.80;;;3.50;99.90;;;;;;4975229;28;20045;-76
2022/04/09 04:28:28;;;;;;;10.88;2.10;;;3.30;99.90;;;;;;4959032;28;20111;-76
2022/04/09 04:30:54;;;;;;;10.35;1.80;;;3.40;99.90;;;;;;4975378;28;20069;-76
2022/04/09 04:33:20;;;;;;;10.15;1.80;;;3.40;99.90;;;;;;4974305;28;20514;-76
2022/04/09 04:35:46;;;;;;;8.95;1.92;;;3.30;99.90;;;;;;4975151;28;20045;-76
2022/04/09 04:38:12;;;;;;;8.90;1.80;;;3.30;99.90;;;;;;4974816;28;20058;-76
2022/04/09 04:40:38;;;;;;;4.97;1.60;;;3.30;99.90;;;;;;4959230;28;20046;-76
2022/04/09 04:43:03;;;;;;;6.43;1.60;;;3.30;99.90;;;;;;4958523;28;20043;-76
2022/04/09 04:45:32;;;;;;;7.18;1.58;;;3.30;99.90;;;;;;4975054;28;20046;-76
2022/04/09 04:47:58;;;;;;;8.60;1.50;;;3.30;99.90;;;;;;4974009;28;20486;-76
2022/04/09 04:50:25;;;;;;;12.20;1.73;;;3.30;99.90;;;;;;4975146;28;20051;-76
2022/04/09 04:52:51;;;;;;;10.25;1.60;;;3.30;99.90;;;;;;4974273;28;20086;-76
2022/04/09 04:55:17;;;;;;;7.82;1.50;;;3.30;99.90;;;;;;4974590;28;20462;-76
2022/04/09 04:57:48;;;;;;;7.93;1.60;;;3.30;99.90;;;;;;4958140;28;20078;-76
2022/04/09 05:00:22;;;;;;;7.57;1.60;;;3.30;99.90;;;;;;4974650;28;20065;-76
2022/04/09 05:02:48;;;;;;;8.25;1.45;;;3.30;99.90;;;;;;4986788;28;20046;-76
2022/04/09 05:05:14;;;;;;;7.75;1.58;;;3.40;99.90;;;;;;4977800;28;20034;-76
2022/04/09 05:07:45;;;;;;;8.32;1.50;;;3.40;99.90;;;;;;4993583;28;20092;-76
2022/04/09 05:10:16;;;;;;;7.03;1.60;;;3.40;99.90;;;;;;4993889;28;20050;-76
2022/04/09 05:12:42;;;;;;;8.05;1.60;;;3.50;99.90;;;;;;4993581;28;20387;-76
2022/04/09 05:15:11;;;;;;;11.80;1.52;;;3.50;99.90;;;;;;4977676;28;20125;-77
2022/04/09 05:17:37;;;;;;;8.75;1.40;;;3.50;99.90;;;;;;4991715;28;20181;-77
2022/04/09 05:20:05;;;;;;;10.60;1.77;;;3.50;99.90;;;;;;4985662;28;20054;-77
2022/04/09 05:22:31;;;;;;;8.52;1.65;;;3.60;99.90;;;;;;4957748;28;20109;-78
2022/04/09 05:24:58;;;;;;;7.10;1.90;;;3.70;99.90;;;;;;4978753;28;20125;-78
2022/04/09 05:27:24;;;;;;;8.80;1.77;;;3.70;99.90;;;;;;4976787;28;20039;-78
2022/04/09 05:29:50;;;;;;;10.68;1.70;;;3.80;99.90;;;;;;4993535;28;20030;-78
2022/04/09 05:32:17;;;;;;;9.50;1.67;;;3.80;99.90;;;;;;4975655;28;20515;-76
2022/04/09 05:34:42;;;;;;;11.75;1.92;;;3.80;99.90;;;;;;5009749;28;20050;-76
2022/04/09 05:37:08;;;;;;;8.88;1.92;;;3.90;99.90;;;;;;5009661;28;20453;-76
2022/04/09 05:39:34;;;;;;;6.72;1.60;;;3.80;99.90;;;;;;4972787;28;20042;-76
2022/04/09 05:42:00;;;;;;;8.02;1.85;;;4.00;99.90;;;;;;4974053;28;20476;-76
2022/04/09 05:44:26;;;;;;;8.38;1.80;;;3.90;99.90;;;;;;4957202;28;20129;-76
2022/04/09 05:46:52;;;;;;;8.10;1.90;;;3.90;99.90;;;;;;4974040;28;20395;-76
2022/04/09 05:49:18;;;;;;;8.52;1.75;;;4.00;99.90;;;;;;4972633;28;20046;-76
2022/04/09 05:51:44;;;;;;;8.60;1.80;;;4.20;99.90;;;;;;4973693;28;20519;-76
2022/04/09 05:54:10;;;;;;;8.93;1.80;;;4.10;99.90;;;;;;4972288;28;20042;-76
2022/04/09 05:56:36;;;;;;;7.00;1.77;;;4.10;99.90;;;;;;4963928;28;20038;-76
2022/04/09 05:59:02;;;;;;;9.70;1.98;;;4.30;99.90;;;;;;4985969;28;20047;-76
2022/04/09 06:01:28;;;;;;;8.98;2.00;;;4.40;99.90;;;;;;4956318;28;20406;-76
2022/04/09 06:03:55;;;;;;;7.90;1.73;;;4.50;99.90;;;;;;4988040;28;20517;-76
2022/04/09 06:06:22;;;;;;;8.45;1.90;;;4.70;99.90;;;;;;4956434;28;20077;-76
2022/04/09 06:08:48;;;;;;;11.27;1.98;;;5.00;99.90;;;;;;4958014;28;20070;-76
2022/04/09 06:11:14;;;;;;;9.90;2.00;;;5.40;99.90;;;;;;4957012;28;20043;-78
2022/04/09 06:13:40;;;;;;;7.07;1.60;;;5.90;99.90;;;;;;4941327;28;20110;-78
2022/04/09 06:16:08;;;;;;;9.45;1.80;;;6.10;99.90;;;;;;4957324;28;20042;-77
2022/04/09 06:18:38;;;;;;;9.73;1.90;;;6.50;99.90;;;;;;4956500;28;20047;-77
2022/04/09 06:21:04;;;;;;;9.63;1.90;;;6.60;99.90;;;;;;4957815;28;20401;-79
2022/04/09 06:23:30;;;;;;;9.48;2.00;;;7.10;99.90;;;;;;4973685;28;20046;-77
2022/04/09 06:25:55;;;;;;;7.03;1.70;;;7.00;99.90;;;;;;4992725;28;20046;-77
2022/04/09 06:28:21;;;;;;;10.57;1.95;;;7.30;99.90;;;;;;5008854;28;20030;-77
2022/04/09 06:30:47;;;;;;;7.50;1.70;;;7.90;99.90;;;;;;4976445;28;20070;-77
2022/04/09 06:33:12;;;;;;;6.95;1.60;;;8.10;99.90;;;;;;4991414;28;20383;-77
2022/04/09 06:35:38;;;;;;;10.65;2.40;;;8.20;99.90;;;;;;4992533;28;20046;-77
2022/04/09 06:38:04;;;;;;;6.88;1.60;;;7.90;99.90;;;;;;4988631;28;20042;-79
2022/04/09 06:40:29;;;;;;;9.18;1.63;;;7.90;99.90;;;;;;4972735;28;20505;-78
2022/04/09 06:42:56;;;;;;;8.15;1.60;;;8.30;99.90;;;;;;4959092;28;20042;-78
2022/04/09 06:45:22;;;;;;;6.40;1.88;;;8.30;99.90;;;;;;4972988;28;20231;-77
2022/04/09 06:47:47;;;;;;;9.20;1.70;;;8.60;99.90;;;;;;4983591;28;20084;-77
2022/04/09 06:50:14;;;;;;;7.00;1.33;;;8.70;99.90;;;;;;4992377;28;20074;-77
2022/04/09 06:52:40;;;;;;;9.23;1.77;;;8.80;99.90;;;;;;4991977;28;20146;-77
2022/04/09 06:55:10;;;;;;;8.68;1.63;;;9.00;99.90;;;;;;4991008;28;20084;-77
2022/04/09 06:57:41;;;;;;;7.05;1.75;;;9.20;99.90;;;;;;4971402;28;20050;-77
2022/04/09 07:00:12;;;;;;;10.68;2.05;;;9.20;99.90;;;;;;4956968;28;20082;-77
2022/04/09 07:02:38;;;;;;;8.50;1.87;;;9.10;99.90;;;;;;4969244;28;20093;-78
2022/04/09 07:05:05;;;;;;;10.40;2.50;;;9.70;99.90;;;;;;4971425;28;20037;-78
2022/04/09 07:07:31;;;;;;;7.82;2.00;;;9.80;99.90;;;;;;4971331;28;20385;-78
2022/04/09 07:10:06;;;;;;;7.60;1.77;;;9.90;99.90;;;;;;4988164;28;20027;-78
2022/04/09 07:12:32;;;;;;;7.93;2.05;;;9.80;99.90;;;;;;4971889;28;20050;-78
2022/04/09 07:14:58;;;;;;;12.32;4.80;;;9.90;99.90;;;;;;4973503;28;20034;-77
2022/04/09 07:17:29;;;;;;;8.30;2.47;;;10.10;99.90;;;;;;4990242;28;20099;-76
2022/04/09 07:20:03;;;;;;;10.57;2.03;;;10.70;99.90;;;;;;4992214;28;20109;-76
2022/04/09 07:22:29;;;;;;;8.90;1.95;;;10.60;99.90;;;;;;4985564;28;20125;-76
2022/04/09 07:24:55;;;;;;;8.32;1.88;;;9.90;99.70;;;;;;4956672;28;20070;-76
2022/04/09 07:27:21;;;;;;;8.90;1.88;;;9.20;99.90;;;;;;4972390;28;20093;-76
2022/04/09 07:29:47;;;;;;;10.07;2.05;;;8.60;99.90;;;;;;4972467;28;20035;-77
2022/04/09 07:32:13;;;;;;;7.65;1.63;;;8.30;99.90;;;;;;4970556;28;20049;-77
2022/04/09 07:34:39;;;;;;;8.90;1.92;;;7.90;99.90;;;;;;4974167;28;20413;-79
2022/04/09 07:37:05;;;;;;;9.50;2.03;;;7.90;99.90;;;;;;4959463;28;20509;-79
2022/04/09 07:39:30;;;;;;;6.95;1.80;;;8.50;99.90;;;;;;4991832;28;20046;-79
2022/04/09 07:41:56;;;;;;;11.52;2.00;;;9.20;99.90;;;;;;4959728;28;20039;-79
2022/04/09 07:44:23;;;;;;;7.70;1.90;;;9.60;99.90;;;;;;4975613;28;20042;-79
2022/04/09 07:46:50;;;;;;;9.35;2.45;;;9.90;99.90;;;;;;4992182;28;20057;-79
2022/04/09 07:49:16;;;;;;;9.68;1.90;;;10.30;99.90;;;;;;4958537;28;20125;-79
2022/04/09 07:51:41;;;;;;;8.20;1.90;;;10.40;99.90;;;;;;4946638;28;20080;-79
2022/04/09 07:54:08;;;;;;;7.88;1.70;;;10.10;99.90;;;;;;4979151;28;20042;-79
2022/04/09 07:56:34;;;;;;;8.52;1.70;;;10.10;99.90;;;;;;4979302;28;20568;-79
2022/04/09 07:59:00;;;;;;;9.40;1.80;;;9.90;99.90;;;;;;4962750;28;20043;-79
2022/04/09 08:01:26;;;;;;;8.30;1.67;;;10.00;99.90;;;;;;5011471;28;20097;-79
2022/04/09 08:03:51;;;;;;;8.18;1.80;;;10.20;99.60;;;;;;5010278;28;20579;-79
2022/04/09 08:06:17;;;;;;;9.95;1.80;;;10.10;97.70;;;;;;4962845;28;20090;-79
2022/04/09 08:08:43;;;;;;;9.13;1.70;;;9.90;98.00;;;;;;4978531;28;20048;-79
2022/04/09 08:11:10;;;;;;;8.98;1.77;;;9.90;99.90;;;;;;4978831;28;20042;-79
2022/04/09 08:13:36;;;;;;;8.40;1.75;;;10.00;99.90;;;;;;5010873;28;20042;-79
2022/04/09 08:16:02;;;;;;;7.57;1.80;;;10.10;99.50;;;;;;4978912;28;20571;-79
2022/04/09 08:18:28;;;;;;;10.15;1.90;;;9.90;99.10;;;;;;4993830;28;20057;-79
2022/04/09 08:20:53;;;;;;;10.60;1.83;;;9.90;99.90;;;;;;4995108;28;20109;-79
2022/04/09 08:23:19;;;;;;;8.50;1.88;;;10.10;99.90;;;;;;4994495;28;20057;-79
2022/04/09 08:25:45;;;;;;;7.65;1.80;;;10.10;99.90;;;;;;4994976;28;20044;-79
2022/04/09 08:28:10;;;;;;;8.73;1.80;;;9.80;98.10;;;;;;4978141;28;20042;-79
2022/04/09 08:30:38;;;;;;;8.07;1.85;;;10.00;99.70;;;;;;4994805;28;20045;-79
2022/04/09 08:33:07;;;;;;;10.98;2.13;;;9.80;98.50;;;;;;4993768;28;20553;-79
2022/04/09 08:35:33;;;;;;;5.53;1.67;;;9.70;98.30;;;;;;4994545;28;20052;-79
2022/04/09 08:37:59;;;;;;;9.75;1.70;;;9.50;98.00;;;;;;4986873;28;20512;-79
2022/04/09 08:40:25;;;;;;;9.10;1.80;;;9.60;98.70;;;;;;4994352;28;20129;-79
2022/04/09 08:42:52;;;;;;;9.07;1.70;;;9.90;99.90;;;;;;4994029;28;20105;-79
2022/04/09 08:45:18;;;;;;;6.05;1.48;;;10.20;98.50;;;;;;4978182;28;20046;-79
2022/04/09 08:47:45;;;;;;;9.82;1.80;;;10.20;96.40;;;;;;4993140;28;20042;-79
2022/04/09 08:50:12;;;;;;;9.55;1.65;;;10.20;94.40;;;;;;4978068;28;20042;-80
2022/04/09 08:52:43;;;;;;;8.43;1.60;;;9.90;94.50;;;;;;4993732;28;20093;-80
2022/04/09 08:55:12;;;;;;;8.10;1.83;;;9.80;96.20;;;;;;4994151;28;20047;-79
2022/04/09 08:57:39;;;;;;;9.55;2.00;;;9.70;97.30;;;;;;4993821;28;20112;-79
2022/04/09 09:00:07;;;;;;;7.63;1.73;;;9.50;97.60;;;;;;4977547;28;20053;-79
2022/04/09 09:02:47;;;;;;;10.45;1.80;;;9.40;98.40;;;;;;4976214;28;20047;-79
2022/04/09 09:05:30;;;;;;;9.10;1.95;;;9.20;98.70;;;;;;4994199;28;20505;-79
2022/04/09 09:07:56;;;;;;;8.00;1.73;;;9.10;98.00;;;;;;4977442;28;20061;-79
2022/04/09 09:10:22;;;;;;;8.90;1.90;;;9.30;98.40;;;;;;4981207;28;20560;-79
2022/04/09 09:13:06;;;;;;;9.00;1.85;;;9.70;98.50;;;;;;4942077;28;20042;-79
2022/04/09 09:15:52;;;;;;;13.48;2.10;;;10.10;95.20;;;;;;4986386;28;20084;-79
2022/04/09 09:18:22;;;;;;;9.00;1.90;;;10.10;95.10;;;;;;4992655;28;20053;-79
2022/04/09 09:20:59;;;;;;;9.55;1.77;;;10.10;96.20;;;;;;4977571;28;20387;-79
2022/04/09 09:23:32;;;;;;;8.07;1.60;;;9.90;95.10;;;;;;4977180;28;20398;-79
2022/04/09 09:25:59;;;;;;;7.63;1.50;;;9.80;95.30;;;;;;4977625;28;20081;-79
2022/04/09 09:28:36;;;;;;;7.78;1.80;;;9.70;97.20;;;;;;4993446;28;20046;-79
2022/04/09 09:31:04;;;;;;;9.77;1.70;;;9.70;96.70;;;;;;4994080;28;20065;-79
2022/04/09 09:33:30;;;;;;;8.73;1.50;;;9.60;96.30;;;;;;4993119;28;20049;-79
2022/04/09 09:35:59;;;;;;;6.55;1.50;;;10.00;96.40;;;;;;4993658;28;20035;-79
2022/04/09 09:38:30;;;;;;;9.60;1.80;;;10.30;94.70;;;;;;4977410;28;20089;-79
2022/04/09 09:40:57;;;;;;;8.18;1.80;;;10.40;90.90;;;;;;4977732;28;20399;-79
2022/04/09 09:43:24;;;;;;;7.45;1.60;;;10.50;87.50;;;;;;4993388;28;20490;-79
2022/04/09 09:45:52;;;;;;;8.98;1.88;;;10.80;90.20;;;;;;4977517;28;20394;-79
2022/04/09 09:48:26;;;;;;;7.72;1.70;;;11.10;90.80;;;;;;4976768;28;20498;-79
2022/04/09 09:50:53;;;;;;;6.45;1.40;;;11.10;89.60;;;;;;4977773;28;20038;-79
2022/04/09 09:53:29;;;;;;;11.48;1.70;;;11.20;86.30;;;;;;4993524;28;20129;-79
2022/04/09 09:55:56;;;;;;;6.50;1.50;;;11.00;89.40;;;;;;4993723;28;20065;-79
2022/04/09 09:58:23;;;;;;;6.32;2.00;;;10.50;87.70;;;;;;4974556;28;20043;-79
2022/04/09 10:00:49;;;;;;;8.68;2.20;;;10.00;86.70;;;;;;4962658;28;20038;-79
2022/04/09 10:03:16;;;;;;;7.82;1.73;;;9.90;90.90;;;;;;4992613;28;20393;-79
2022/04/09 10:05:42;;;;;;;6.85;1.65;;;10.20;94.90;;;;;;4977488;28;20057;-79
2022/04/09 10:08:09;;;;;;;8.77;1.67;;;10.50;93.60;;;;;;4976918;28;20042;-79
2022/04/09 10:10:36;;;;;;;11.70;2.15;;;10.50;91.40;;;;;;4993141;28;20129;-79
2022/04/09 10:13:04;;;;;;;5.85;1.40;;;10.20;92.20;;;;;;4992232;28;20046;-79
2022/04/09 10:15:30;;;;;;;6.88;1.33;;;9.70;92.70;;;;;;4984090;28;20126;-79
2022/04/09 10:17:58;;;;;;;5.47;1.27;;;9.40;93.80;;;;;;4972906;28;20115;-79
2022/04/09 10:20:28;;;;;;;5.28;1.17;;;9.00;94.50;;;;;;4957318;28;20039;-79
2022/04/09 10:23:00;;;;;;;6.25;1.50;;;8.50;96.50;;;;;;4973065;28;20074;-79
2022/04/09 10:25:32;;;;;;;8.20;1.48;;;8.30;99.90;;;;;;4973624;28;20035;-79
2022/04/09 10:28:03;;;;;;;9.23;1.60;;;8.50;99.90;;;;;;4988250;28;20082;-79
2022/04/09 10:30:38;;;;;;;7.82;1.30;;;8.80;99.90;;;;;;4973403;28;20047;-79
2022/04/09 10:33:33;;;;;;;6.45;1.42;;;9.30;99.90;;;;;;4972529;28;20098;-79
2022/04/09 10:36:02;;;;;;;8.02;1.50;;;9.70;99.90;;;;;;4973623;28;20050;-79
2022/04/09 10:38:28;;;;;;;6.93;1.80;;;9.60;99.10;;;;;;4982052;28;20092;-79
2022/04/09 10:40:55;;;;;;;8.55;1.73;;;9.80;99.60;;;;;;4993073;28;20593;-79
2022/04/09 10:43:24;;;;;;;7.05;1.45;;;10.00;98.80;;;;;;4992323;28;20043;-79
2022/04/09 10:46:02;;;;;;;7.97;1.80;;;10.10;95.60;;;;;;4993037;28;20512;-79
2022/04/09 10:48:36;;;;;;;9.13;1.65;;;10.40;95.50;;;;;;4991671;28;20039;-79
2022/04/09 10:51:11;;;;;;;12.23;4.75;;;10.60;94.60;;;;;;4992988;28;20042;-79
2022/04/09 10:53:42;;;;;;;6.88;1.60;;;10.50;95.00;;;;;;4992332;28;20137;-79
2022/04/09 10:56:24;;;;;;;6.85;1.67;;;9.40;94.60;;;;;;4976610;28;20046;-79
2022/04/09 10:59:16;;;;;;;8.90;1.80;;;8.70;97.80;;;;;;4992242;28;20105;-79
2022/04/09 11:01:48;;;;;;;7.20;1.45;;;8.50;99.90;;;;;;5008911;28;20114;-79
2022/04/09 11:04:35;;;;;;;6.70;1.48;;;8.50;99.90;;;;;;4992004;28;20356;-79
2022/04/09 11:07:23;;;;;;;10.75;2.00;;;8.70;99.90;;;;;;5009414;28;20050;-79
2022/04/09 11:09:56;;;;;;;9.15;1.60;;;9.10;99.90;;;;;;4992505;28;20035;-79
2022/04/09 11:12:41;;;;;;;6.78;1.50;;;9.40;99.90;;;;;;4991672;28;20042;-79
2022/04/09 11:15:17;;;;;;;7.05;1.40;;;9.50;99.90;;;;;;4991014;28;20050;-79
2022/04/09 11:17:47;;;;;;;6.93;1.20;;;9.50;99.90;;;;;;4990321;28;20426;-79
2022/04/09 11:20:15;;;;;;;4.80;1.00;;;9.20;98.90;;;;;;4992827;28;20428;-79
2022/04/09 11:22:48;;;;;;;4.82;1.20;;;8.90;99.20;;;;;;4992207;28;20047;-79
2022/04/09 11:25:23;;;;;;;5.68;1.20;;;8.70;99.70;;;;;;5011614;28;20038;-79
2022/04/09 11:27:51;;;;;;;6.05;1.20;;;8.60;99.90;;;;;;4986813;28;20042;-79
2022/04/09 11:30:17;;;;;;;7.25;1.40;;;8.40;99.90;;;;;;4944619;28;20053;-79
2022/04/09 11:32:45;;;;;;;6.35;1.30;;;8.20;99.90;;;;;;4959321;28;20047;-79
2022/04/09 11:35:11;;;;;;;7.18;1.60;;;8.00;99.90;;;;;;4960669;28;20035;-79
2022/04/09 11:37:47;;;;;;;7.22;1.38;;;8.00;99.90;;;;;;4944439;28;20089;-79
2022/04/09 11:40:15;;;;;;;7.65;1.52;;;7.90;99.90;;;;;;4976122;28;20051;-79
2022/04/09 11:42:48;;;;;;;8.48;1.42;;;8.00;99.90;;;;;;4975930;28;20038;-79
2022/04/09 11:45:21;;;;;;;9.10;1.55;;;8.20;99.90;;;;;;4976333;28;20046;-79
2022/04/09 11:47:48;;;;;;;6.53;1.25;;;8.60;99.90;;;;;;4975032;28;20050;-79
2022/04/09 11:50:14;;;;;;;9.15;1.60;;;8.90;99.90;;;;;;4976295;28;20062;-79
2022/04/09 11:52:40;;;;;;;6.50;1.48;;;9.20;99.90;;;;;;4959764;28;20058;-79
2022/04/09 11:55:10;;;;;;;8.73;1.70;;;9.30;99.90;;;;;;4960153;28;20062;-79
2022/04/09 11:57:38;;;;;;;8.00;1.50;;;9.60;99.90;;;;;;4975750;28;20050;-79
2022/04/09 12:00:06;;;;;;;7.47;1.40;;;9.80;99.90;;;;;;4960070;28;20536;-79
2022/04/09 12:02:32;;;;;;;7.35;1.63;;;9.90;99.90;;;;;;4974904;28;20047;-79
2022/04/09 12:04:58;;;;;;;7.22;1.67;;;9.90;99.60;;;;;;4960365;28;20042;-79
2022/04/09 12:07:28;;;;;;;8.27;1.65;;;9.90;99.60;;;;;;4976137;28;20572;-79
2022/04/09 12:09:54;;;;;;;9.23;1.75;;;9.80;99.90;;;;;;4976002;28;20045;-79
2022/04/09 12:12:22;;;;;;;7.63;1.52;;;10.00;99.90;;;;;;4976007;28;20394;-79
2022/04/09 12:14:57;;;;;;;7.20;1.60;;;10.20;99.90;;;;;;4975806;28;20106;-79
2022/04/09 12:17:34;;;;;;;8.05;1.80;;;10.00;99.30;;;;;;4974770;28;20108;-79
2022/04/09 12:20:00;;;;;;;7.88;2.00;;;9.80;99.60;;;;;;4975731;28;20101;-79
2022/04/09 12:22:26;;;;;;;9.55;1.80;;;9.50;99.90;;;;;;4959204;28;20126;-79
2022/04/09 12:24:56;;;;;;;8.63;1.77;;;9.50;99.90;;;;;;4975597;28;20050;-79
2022/04/09 12:27:45;;;;;;;9.00;1.60;;;9.40;99.20;;;;;;4975294;28;20043;-79
2022/04/09 12:30:13;;;;;;;9.07;2.03;;;9.50;99.90;;;;;;4959340;28;20035;-79
2022/04/09 12:32:41;;;;;;;8.20;1.85;;;9.60;99.30;;;;;;4974602;28;20046;-79
2022/04/09 12:35:11;;;;;;;8.05;1.67;;;9.70;99.90;;;;;;4959177;28;20042;-79
2022/04/09 12:37:48;;;;;;;8.55;1.88;;;9.80;99.90;;;;;;4958764;28;20134;-79
2022/04/09 12:40:29;;;;;;;8.05;1.83;;;9.70;99.30;;;;;;4975642;28;20418;-79
2022/04/09 12:42:55;;;;;;;6.05;1.30;;;9.70;99.90;;;;;;4960224;28;20509;-79
2022/04/09 12:45:25;;;;;;;6.78;1.42;;;9.80;99.80;;;;;;4959457;28;20035;-79
2022/04/09 12:47:56;;;;;;;6.03;1.40;;;10.00;99.90;;;;;;4958138;28;20077;-79
2022/04/09 12:50:31;;;;;;;7.07;1.50;;;10.30;98.00;;;;;;4975221;28;20047;-79
2022/04/09 12:52:58;;;;;;;6.00;1.27;;;10.30;96.70;;;;;;4958666;28;20117;-79
2022/04/09 12:55:25;;;;;;;3.97;1.00;;;9.90;96.80;;;;;;4974936;28;20050;-79
2022/04/09 12:57:52;;;;;;;5.57;1.10;;;9.40;97.20;;;;;;4974623;28;20051;-79